Time;durP1;ratioP1;P1;durP2;ratioP2;P2;SDS_P1;SDS_P2;PMS_P1;PMS_P2;Temp;Humidity;BMP_temperature;BMP_pressure;BME280_temperature;BME280_humidity;BME280_pressure;Samples;Min_cycle;Max_cycle;Signal;HPM_P1;HPM_P2
2023/12/01 00:00:00;;;;;;;2.05;1.85;;;20.70;40.80;21.40;100010.00;;;;5014320;28;20045;-51
2023/12/01 00:02:26;;;;;;;2.05;1.42;;;20.70;40.90;21.40;100014.00;;;;5013721;28;20030;-47
2023/12/01 00:04:52;;;;;;;2.13;1.92;;;20.70;40.90;21.40;100008.00;;;;5021696;28;20722;-48
2023/12/01 00:07:18;;;;;;;4.35;2.05;;;20.70;40.80;21.40;100004.00;;;;5014049;28;20076;-48
2023/12/01 00:09:44;;;;;;;1.85;1.75;;;20.70;41.50;21.40;100009.00;;;;5013761;28;20064;-48
2023/12/01 00:12:10;;;;;;;1.98;1.88;;;20.70;40.90;21.40;100014.00;;;;4996925;28;20068;-48
2023/12/01 00:14:40;;;;;;;1.75;1.65;;;20.70;40.80;21.40;100018.00;;;;5015416;28;20052;-46
2023/12/01 00:17:07;;;;;;;2.38;1.90;;;20.70;40.90;21.40;100013.00;;;;5029972;28;20067;-48
2023/12/01 00:19:33;;;;;;;3.03;2.53;;;20.60;40.90;21.40;100009.00;;;;4980919;28;20846;-48
2023/12/01 00:21:59;;;;;;;1.48;1.40;;;20.70;40.90;21.40;100014.00;;;;5015467;28;20137;-46
2023/12/01 00:24:25;;;;;;;2.38;2.28;;;20.70;40.90;21.40;100004.00;;;;5014132;28;20034;-43
2023/12/01 00:26:51;;;;;;;1.80;1.70;;;20.60;40.80;21.40;100004.00;;;;5013329;28;20045;-46
2023/12/01 00:29:17;;;;;;;2.47;2.28;;;20.70;40.90;21.30;100008.00;;;;5014726;28;20053;-44
2023/12/01 00:31:43;;;;;;;1.85;1.75;;;20.60;40.90;21.30;100010.00;;;;5005106;28;20365;-43
2023/12/01 00:34:10;;;;;;;2.05;1.95;;;20.60;40.90;21.30;100014.00;;;;5014036;28;20033;-44
2023/12/01 00:36:36;;;;;;;2.10;1.77;;;20.60;40.90;21.30;100018.00;;;;5013991;28;20042;-43
2023/12/01 00:39:02;;;;;;;1.90;1.80;;;20.60;40.90;21.30;100011.00;;;;4998572;28;20064;-44
2023/12/01 00:41:28;;;;;;;1.95;1.88;;;20.60;40.90;21.30;100008.00;;;;5013180;28;20069;-43
2023/12/01 00:43:54;;;;;;;2.35;2.17;;;20.60;40.90;21.30;100020.00;;;;5014367;28;20477;-43
2023/12/01 00:46:20;;;;;;;3.90;2.58;;;20.60;40.90;21.30;100017.00;;;;5013531;28;20124;-43
2023/12/01 00:48:46;;;;;;;2.05;1.85;;;20.60;41.00;21.30;100015.00;;;;5029291;28;21685;-44
2023/12/01 00:51:19;;;;;;;2.58;2.38;;;20.60;40.90;21.30;100023.00;;;;5012967;28;20088;-43
2023/12/01 00:53:46;;;;;;;2.33;2.13;;;20.60;40.90;21.30;100023.00;;;;5013798;28;20050;-43
2023/12/01 00:56:13;;;;;;;2.13;2.03;;;20.60;40.80;21.30;100029.00;;;;5030276;28;20056;-43
2023/12/01 00:58:39;;;;;;;2.45;2.35;;;20.60;40.90;21.30;100027.00;;;;5014887;28;20049;-43
2023/12/01 01:01:06;;;;;;;1.83;1.73;;;20.50;40.80;21.30;100026.00;;;;5013002;28;20503;-43
2023/12/01 01:03:35;;;;;;;1.98;1.88;;;20.50;40.80;21.30;100022.00;;;;5014299;28;20065;-43
2023/12/01 01:06:03;;;;;;;2.50;2.40;;;20.60;40.90;21.30;100029.00;;;;5013913;28;20485;-44
2023/12/01 01:08:30;;;;;;;1.85;1.75;;;20.60;40.90;21.30;100023.00;;;;5028974;28;20481;-44
2023/12/01 01:10:56;;;;;;;2.05;1.98;;;20.50;40.90;21.30;100021.00;;;;5012643;28;20034;-43
2023/12/01 01:13:25;;;;;;;2.38;2.28;;;20.50;40.80;21.20;100024.00;;;;5004582;28;20034;-43
2023/12/01 01:15:51;;;;;;;2.55;2.42;;;20.50;40.80;21.30;100022.00;;;;5021499;28;20140;-43
2023/12/01 01:18:17;;;;;;;2.55;2.35;;;20.50;40.80;21.20;100016.00;;;;5016091;28;20136;-43
2023/12/01 01:20:43;;;;;;;2.60;2.40;;;20.50;40.80;21.20;100017.00;;;;5016699;28;20521;-43
2023/12/01 01:23:09;;;;;;;2.30;2.05;;;20.50;40.90;21.20;100019.00;;;;5018073;28;20099;-43
2023/12/01 01:25:35;;;;;;;2.42;2.22;;;20.50;40.80;21.20;100023.00;;;;5024823;28;20037;-43
2023/12/01 01:28:01;;;;;;;2.60;2.30;;;20.50;40.80;21.20;100016.00;;;;5033625;28;20030;-43
2023/12/01 01:30:27;;;;;;;2.67;2.47;;;20.50;40.80;21.20;100027.00;;;;5017699;28;20047;-43
2023/12/01 01:32:53;;;;;;;1.80;1.80;;;20.50;40.90;21.20;100034.00;;;;5017714;28;20057;-43
2023/12/01 01:35:19;;;;;;;3.50;2.28;;;20.50;40.80;21.20;100042.00;;;;4984114;28;20102;-43
2023/12/01 01:37:45;;;;;;;2.00;1.88;;;20.50;40.90;21.20;100033.00;;;;5016253;28;20414;-44
2023/12/01 01:40:12;;;;;;;3.28;3.08;;;20.50;40.80;21.20;100041.00;;;;5016755;28;20129;-43
2023/12/01 01:42:39;;;;;;;2.65;2.55;;;20.50;40.90;21.20;100041.00;;;;5017510;28;20052;-43
2023/12/01 01:45:05;;;;;;;3.58;3.38;;;20.50;40.80;21.20;100042.00;;;;5017346;28;20038;-44
2023/12/01 01:47:35;;;;;;;2.67;2.03;;;20.50;40.90;21.20;100036.00;;;;5016568;28;20129;-43
2023/12/01 01:50:03;;;;;;;2.33;2.22;;;20.50;40.90;21.20;100038.00;;;;5023612;28;20048;-43
2023/12/01 01:52:48;;;;;;;;;;;20.40;40.90;21.20;100030.00;;;;5016627;28;20061;-43
2023/12/01 01:55:14;;;;;;;1.83;1.67;;;20.50;40.90;21.20;100034.00;;;;5016384;28;19931;-44
2023/12/01 01:57:45;;;;;;;8.10;2.33;;;20.50;41.00;21.20;100039.00;;;;5015634;28;20048;-43
2023/12/01 02:00:16;;;;;;;2.83;2.67;;;20.50;41.00;21.20;100041.00;;;;5023283;28;20112;-43
2023/12/01 02:02:42;;;;;;;2.97;2.85;;;20.40;41.00;21.20;100044.00;;;;5032956;28;20068;-43
2023/12/01 02:05:13;;;;;;;4.93;2.65;;;20.40;41.00;21.20;100042.00;;;;5016132;28;20073;-44
2023/12/01 02:08:17;;;;;;;3.03;2.83;;;20.40;41.00;21.20;100047.00;;;;5023778;28;20040;-43
2023/12/01 02:10:43;;;;;;;2.15;1.95;;;20.40;41.00;21.20;100048.00;;;;5025554;28;20030;-43
2023/12/01 02:13:10;;;;;;;3.13;2.92;;;20.40;40.90;21.20;100050.00;;;;5015621;28;20047;-43
2023/12/01 02:15:36;;;;;;;2.92;2.72;;;20.40;40.90;21.20;100059.00;;;;5016580;28;20044;-43
2023/12/01 02:18:02;;;;;;;2.05;1.95;;;20.40;40.90;21.20;100056.00;;;;5017033;28;20034;-43
2023/12/01 02:20:29;;;;;;;3.63;2.63;;;20.40;40.90;21.20;100044.00;;;;5000058;28;20056;-43
2023/12/01 02:22:55;;;;;;;2.88;2.70;;;20.40;40.90;21.20;100058.00;;;;5016155;28;20045;-43
2023/12/01 02:25:39;;;;;;;2.63;2.42;;;20.40;40.90;21.10;100044.00;;;;5017660;28;20052;-43
2023/12/01 02:28:05;;;;;;;2.78;2.58;;;20.40;40.90;21.20;100052.00;;;;5022754;28;20030;-43
2023/12/01 02:30:32;;;;;;;2.65;2.45;;;20.40;40.80;21.10;100050.00;;;;5017532;28;20061;-43
2023/12/01 02:33:18;;;;;;;2.38;2.10;;;20.40;40.90;21.20;100059.00;;;;5015969;28;20038;-43
2023/12/01 02:35:51;;;;;;;2.22;2.13;;;20.40;40.90;21.20;100050.00;;;;4982925;28;20047;-43
2023/12/01 02:38:18;;;;;;;2.85;2.65;;;20.40;40.90;21.20;100047.00;;;;5023919;28;20117;-43
2023/12/01 02:40:49;;;;;;;2.10;2.00;;;20.40;40.90;21.10;100040.00;;;;5016736;28;20049;-44
2023/12/01 02:43:17;;;;;;;2.92;2.58;;;20.40;40.90;21.20;100057.00;;;;5008458;28;20175;-43
2023/12/01 02:45:44;;;;;;;2.53;2.42;;;20.40;40.80;21.10;100052.00;;;;5015900;28;20029;-43
2023/12/01 02:48:10;;;;;;;2.85;2.65;;;20.40;40.80;21.10;100051.00;;;;5015971;28;20500;-43
2023/12/01 02:50:36;;;;;;;1.90;1.80;;;20.40;40.80;21.10;100061.00;;;;4982188;28;20734;-43
2023/12/01 02:53:04;;;;;;;2.33;2.17;;;20.40;40.80;21.10;100059.00;;;;5016270;28;20141;-43
2023/12/01 02:55:31;;;;;;;2.63;2.42;;;20.40;40.80;21.10;100064.00;;;;5015061;28;20116;-43
2023/12/01 02:57:57;;;;;;;2.20;2.10;;;20.40;40.80;21.10;100067.00;;;;4989997;28;20062;-43
2023/12/01 03:00:24;;;;;;;1.75;1.65;;;20.30;40.80;21.10;100068.00;;;;5014978;28;20496;-43
2023/12/01 03:02:51;;;;;;;1.85;1.75;;;20.30;40.70;21.10;100068.00;;;;5015708;28;20047;-43
2023/12/01 03:05:19;;;;;;;1.80;1.63;;;20.30;40.70;21.10;100062.00;;;;5014652;28;20510;-43
2023/12/01 03:07:46;;;;;;;2.58;2.38;;;20.30;40.70;21.10;100064.00;;;;4990148;28;20038;-43
2023/12/01 03:10:12;;;;;;;1.60;1.60;;;20.30;40.70;21.10;100064.00;;;;5015008;28;20487;-44
2023/12/01 03:12:41;;;;;;;2.33;2.22;;;20.30;40.70;21.10;100068.00;;;;4999035;28;20058;-47
2023/12/01 03:15:26;;;;;;;2.03;1.85;;;20.30;40.80;21.10;100067.00;;;;5029006;28;20140;-46
2023/12/01 03:17:52;;;;;;;1.92;1.92;;;20.30;40.80;21.10;100075.00;;;;5006062;28;20084;-44
2023/12/01 03:20:18;;;;;;;1.55;1.50;;;20.30;40.90;21.10;100074.00;;;;5014818;28;20042;-44
2023/12/01 03:22:47;;;;;;;2.08;1.98;;;20.30;40.90;21.10;100084.00;;;;5007290;28;20045;-43
2023/12/01 03:25:13;;;;;;;3.90;1.60;;;20.30;40.90;21.10;100080.00;;;;5022264;28;20461;-44
2023/12/01 03:27:42;;;;;;;2.10;2.00;;;20.30;40.90;21.10;100079.00;;;;5015582;28;20026;-44
2023/12/01 03:30:17;;;;;;;1.88;1.73;;;20.30;41.00;21.10;100079.00;;;;4997110;28;20121;-43
2023/12/01 03:32:49;;;;;;;2.33;2.22;;;20.30;41.00;21.10;100086.00;;;;5014247;28;20041;-44
2023/12/01 03:35:21;;;;;;;2.10;1.80;;;20.30;41.00;21.10;100081.00;;;;4998321;28;20042;-43
2023/12/01 03:37:49;;;;;;;2.10;2.00;;;20.30;40.90;21.00;100081.00;;;;5013646;28;20446;-43
2023/12/01 03:40:16;;;;;;;2.38;2.20;;;20.30;40.90;21.10;100081.00;;;;5014233;28;20072;-44
2023/12/01 03:42:51;;;;;;;1.88;1.85;;;20.30;40.90;21.00;100083.00;;;;5014304;28;20041;-43
2023/12/01 03:45:18;;;;;;;2.10;1.90;;;20.30;41.50;21.00;100079.00;;;;5013323;28;20037;-43
2023/12/01 03:47:50;;;;;;;2.38;2.25;;;20.30;40.90;21.00;100083.00;;;;5013607;28;20471;-43
2023/12/01 03:50:21;;;;;;;2.17;2.08;;;20.30;40.90;21.00;100081.00;;;;5015471;28;20042;-44
2023/12/01 03:52:49;;;;;;;1.92;1.83;;;20.30;40.80;21.00;100083.00;;;;5014189;28;20057;-43
2023/12/01 03:55:16;;;;;;;1.63;1.60;;;20.30;41.50;21.00;100096.00;;;;5013230;28;20095;-43
2023/12/01 03:57:43;;;;;;;1.92;1.83;;;20.20;40.80;21.00;100090.00;;;;5021641;28;20048;-44
2023/12/01 04:00:13;;;;;;;2.17;2.08;;;20.20;40.80;21.00;100099.00;;;;5014894;28;20073;-43
2023/12/01 04:02:41;;;;;;;2.05;1.92;;;20.30;40.90;21.00;100106.00;;;;5015408;28;20034;-43
2023/12/01 04:05:09;;;;;;;2.10;1.98;;;20.30;40.80;21.00;100109.00;;;;5013975;28;20519;-45
2023/12/01 04:07:35;;;;;;;2.80;2.60;;;20.30;41.40;21.00;100108.00;;;;5015275;28;20033;-44
2023/12/01 04:10:10;;;;;;;1.73;1.58;;;20.30;40.80;21.00;100103.00;;;;5014437;28;20037;-43
2023/12/01 04:12:55;;;;;;;1.42;1.33;;;20.30;40.70;21.00;100107.00;;;;5027810;28;20041;-43
2023/12/01 04:15:24;;;;;;;2.58;1.25;;;20.30;40.80;21.00;100100.00;;;;5012522;28;20486;-43
2023/12/01 04:17:50;;;;;;;1.60;1.50;;;20.30;40.80;21.00;100099.00;;;;5013063;28;20049;-43
2023/12/01 04:20:24;;;;;;;1.25;1.25;;;20.20;40.80;21.00;100096.00;;;;5013777;28;20060;-43
2023/12/01 04:22:59;;;;;;;1.88;1.77;;;20.20;40.80;21.00;100101.00;;;;5014736;28;20534;-47
2023/12/01 04:25:27;;;;;;;2.47;2.38;;;20.20;40.70;21.00;100101.00;;;;5022249;28;20033;-48
2023/12/01 04:27:54;;;;;;;1.45;1.45;;;20.20;40.80;21.00;100104.00;;;;5015283;28;20033;-49
2023/12/01 04:30:21;;;;;;;4.63;1.92;;;20.20;40.80;21.00;100106.00;;;;5015008;28;20102;-48
2023/12/01 04:32:53;;;;;;;1.88;1.77;;;20.20;40.80;21.00;100121.00;;;;5015309;28;20092;-49
2023/12/01 04:35:24;;;;;;;2.42;2.13;;;20.20;40.80;21.00;100113.00;;;;5030347;28;20041;-50
2023/12/01 04:37:51;;;;;;;1.88;1.73;;;20.20;40.70;21.00;100113.00;;;;5013558;28;20108;-49
2023/12/01 04:40:17;;;;;;;2.35;2.08;;;20.20;40.70;21.00;100121.00;;;;5014947;28;20038;-48
2023/12/01 04:42:51;;;;;;;1.55;1.55;;;20.20;40.70;21.00;100113.00;;;;5014882;28;20054;-44
2023/12/01 04:45:20;;;;;;;2.38;2.17;;;20.20;40.70;21.00;100113.00;;;;5037527;28;20040;-44
2023/12/01 04:47:51;;;;;;;2.88;2.67;;;20.20;40.70;21.00;100116.00;;;;5004718;28;20034;-44
2023/12/01 04:50:30;;;;;;;1.85;1.75;;;20.20;40.70;21.00;100119.00;;;;5013453;28;20046;-43
2023/12/01 04:53:01;;;;;;;2.50;2.00;;;20.20;40.70;20.90;100120.00;;;;5017873;28;20046;-44
2023/12/01 04:55:28;;;;;;;2.72;2.10;;;20.20;40.70;20.90;100112.00;;;;5025112;28;20038;-43
2023/12/01 04:57:55;;;;;;;2.45;2.25;;;20.20;40.70;20.90;100122.00;;;;5019627;28;20041;-43
2023/12/01 05:00:25;;;;;;;1.63;1.52;;;20.20;40.70;20.90;100123.00;;;;5016994;28;20060;-43
2023/12/01 05:03:06;;;;;;;3.05;2.10;;;20.20;40.70;20.90;100121.00;;;;5024989;28;20041;-49
2023/12/01 05:05:35;;;;;;;3.03;2.47;;;20.20;40.70;20.90;100118.00;;;;5018386;28;20038;-49
2023/12/01 05:08:07;;;;;;;2.35;2.25;;;20.20;40.70;20.90;100110.00;;;;5018485;28;20037;-47
2023/12/01 05:10:35;;;;;;;2.35;2.25;;;20.20;40.70;20.90;100115.00;;;;5017405;28;20082;-48
2023/12/01 05:13:04;;;;;;;2.35;1.65;;;20.20;40.70;20.90;100135.00;;;;5018227;28;20037;-49
2023/12/01 05:15:34;;;;;;;2.13;2.00;;;20.10;40.70;20.90;100133.00;;;;5016779;28;20457;-48
2023/12/01 05:18:05;;;;;;;2.22;2.13;;;20.20;40.70;21.00;100141.00;;;;5018827;28;20125;-47
2023/12/01 05:20:32;;;;;;;2.50;2.38;;;20.20;41.30;20.90;100140.00;;;;5016727;28;20056;-49
2023/12/01 05:23:00;;;;;;;2.45;2.33;;;20.20;40.70;20.90;100139.00;;;;5017511;28;20033;-49
2023/12/01 05:25:32;;;;;;;2.60;2.35;;;20.10;40.70;20.90;100131.00;;;;5017288;28;20091;-47
2023/12/01 05:28:00;;;;;;;2.58;2.42;;;20.20;40.70;20.90;100137.00;;;;5041206;28;20045;-50
2023/12/01 05:30:34;;;;;;;3.83;2.17;;;20.20;41.30;20.90;100139.00;;;;4985328;28;20036;-51
2023/12/01 05:33:01;;;;;;;2.33;2.22;;;20.20;40.70;20.90;100138.00;;;;5018159;28;20399;-48
2023/12/01 05:35:28;;;;;;;2.55;2.35;;;20.10;40.60;20.90;100137.00;;;;5033428;28;20037;-50
2023/12/01 05:37:58;;;;;;;3.42;2.95;;;20.20;40.60;20.90;100142.00;;;;5017049;28;20041;-49
2023/12/01 05:40:30;;;;;;;2.80;2.70;;;20.20;40.60;20.90;100151.00;;;;5017261;28;20130;-47
2023/12/01 05:42:58;;;;;;;3.00;2.83;;;20.20;40.60;20.90;100144.00;;;;5024000;28;20486;-43
2023/12/01 05:45:27;;;;;;;3.00;2.80;;;20.20;40.60;20.90;100144.00;;;;5018156;28;20057;-43
2023/12/01 05:47:54;;;;;;;4.40;2.58;;;20.20;40.50;20.90;100133.00;;;;5015694;28;20100;-43
2023/12/01 05:50:25;;;;;;;3.35;3.08;;;20.10;40.50;20.90;100136.00;;;;5017514;28;20073;-43
2023/12/01 05:52:54;;;;;;;4.82;3.58;;;20.10;40.40;20.90;100136.00;;;;5016494;28;20090;-43
2023/12/01 05:55:29;;;;;;;3.83;3.40;;;20.10;40.40;20.90;100147.00;;;;5016074;28;20129;-44
2023/12/01 05:57:58;;;;;;;3.17;2.97;;;20.10;40.40;20.90;100145.00;;;;5017688;28;20034;-43
2023/12/01 06:00:29;;;;;;;3.55;3.25;;;20.10;40.40;20.90;100146.00;;;;5016191;28;20026;-43
2023/12/01 06:02:58;;;;;;;2.75;2.55;;;20.10;40.40;20.90;100155.00;;;;5016454;28;20050;-43
2023/12/01 06:05:24;;;;;;;4.72;4.25;;;20.10;40.40;20.90;100150.00;;;;5000535;28;20077;-43
2023/12/01 06:07:54;;;;;;;5.72;4.20;;;20.10;40.40;20.90;100152.00;;;;5015977;28;20045;-43
2023/12/01 06:10:22;;;;;;;5.72;2.97;;;20.10;40.50;20.90;100157.00;;;;5016663;28;20466;-44
2023/12/01 06:12:49;;;;;;;4.10;3.90;;;20.10;40.50;20.90;100159.00;;;;5017790;28;20049;-43
2023/12/01 06:15:17;;;;;;;3.80;3.60;;;20.10;40.50;20.90;100157.00;;;;5018496;28;20096;-43
2023/12/01 06:17:45;;;;;;;3.97;3.75;;;20.10;40.50;20.90;100154.00;;;;5015889;28;20478;-43
2023/12/01 06:20:19;;;;;;;7.38;4.40;;;20.10;40.50;20.90;100160.00;;;;5016603;28;20144;-43
2023/12/01 06:22:56;;;;;;;4.63;3.78;;;20.10;40.60;20.90;100166.00;;;;5015523;28;20042;-41
2023/12/01 06:25:27;;;;;;;4.20;3.85;;;20.10;40.50;20.90;100157.00;;;;5008491;28;20057;-43
2023/12/01 06:27:59;;;;;;;5.75;3.97;;;20.10;40.50;20.90;100163.00;;;;5016276;28;20037;-43
2023/12/01 06:30:35;;;;;;;4.35;3.92;;;20.10;40.50;20.90;100168.00;;;;5008020;28;20043;-44
2023/12/01 06:33:03;;;;;;;;;;;20.10;40.50;20.90;100169.00;;;;5008255;28;20529;-43
2023/12/01 06:35:29;;;;;;;3.92;3.63;;;20.10;40.50;20.90;100169.00;;;;5017184;28;20004;-43
2023/12/01 06:37:56;;;;;;;6.18;4.55;;;20.10;40.40;20.90;100166.00;;;;5016888;28;20045;-43
2023/12/01 06:40:41;;;;;;;4.65;4.25;;;20.10;40.40;20.90;100169.00;;;;5017310;28;20451;-43
2023/12/01 06:43:09;;;;;;;4.88;3.78;;;20.10;40.40;20.90;100171.00;;;;5007904;28;20144;-43
2023/12/01 06:45:37;;;;;;;4.97;4.57;;;20.10;40.40;20.90;100173.00;;;;5017057;28;20112;-43
2023/12/01 06:48:03;;;;;;;5.22;4.22;;;20.10;40.40;20.90;100174.00;;;;5039306;28;20038;-43
2023/12/01 06:50:29;;;;;;;7.07;4.78;;;20.10;40.40;20.90;100174.00;;;;5015133;28;20156;-43
2023/12/01 06:52:59;;;;;;;4.97;4.60;;;20.10;40.40;20.90;100168.00;;;;5015421;28;20064;-43
2023/12/01 06:55:25;;;;;;;4.95;4.38;;;20.10;40.40;20.90;100176.00;;;;5015858;28;20509;-43
2023/12/01 06:57:51;;;;;;;4.20;3.90;;;20.10;40.30;20.90;100187.00;;;;5016562;28;20495;-43
2023/12/01 07:00:33;;;;;;;5.32;4.82;;;20.10;40.40;20.90;100173.00;;;;5015507;28;20053;-43
2023/12/01 07:03:09;;;;;;;4.82;4.40;;;20.10;40.30;20.90;100188.00;;;;5015856;28;20025;-46
2023/12/01 07:05:54;;;;;;;5.40;4.93;;;20.00;40.30;20.90;100177.00;;;;5015793;28;20026;-46
2023/12/01 07:08:20;;;;;;;5.22;4.82;;;20.10;40.90;20.90;100178.00;;;;5014061;28;20044;-47
2023/12/01 07:10:46;;;;;;;4.32;3.92;;;20.10;40.30;20.90;100175.00;;;;5014554;28;20482;-48
2023/12/01 07:13:13;;;;;;;5.82;4.97;;;20.10;40.30;20.90;100174.00;;;;5015828;28;20548;-47
2023/12/01 07:15:39;;;;;;;6.72;5.15;;;20.10;40.30;20.90;100176.00;;;;5032105;28;20474;-48
2023/12/01 07:18:05;;;;;;;5.50;5.00;;;20.10;40.30;20.90;100189.00;;;;5015037;28;20406;-47
2023/12/01 07:20:33;;;;;;;6.28;5.38;;;20.10;40.20;20.90;100189.00;;;;5014950;28;20061;-47
2023/12/01 07:22:59;;;;;;;5.13;4.63;;;20.00;40.20;20.90;100194.00;;;;5015289;28;20499;-47
2023/12/01 07:25:26;;;;;;;6.20;5.70;;;20.10;40.20;20.90;100187.00;;;;5005690;28;20076;-47
2023/12/01 07:28:02;;;;;;;8.45;4.25;;;20.10;40.20;20.90;100193.00;;;;5015444;28;20398;-48
2023/12/01 07:30:29;;;;;;;5.28;4.82;;;20.00;40.10;20.90;100198.00;;;;5015624;28;20059;-48
2023/12/01 07:32:57;;;;;;;6.22;4.70;;;20.00;40.10;20.90;100187.00;;;;5013394;28;20068;-48
2023/12/01 07:35:23;;;;;;;4.75;4.28;;;20.10;40.20;20.80;100194.00;;;;5015075;28;20686;-47
2023/12/01 07:37:52;;;;;;;6.55;5.80;;;20.10;40.20;20.90;100190.00;;;;4998127;28;20037;-47
2023/12/01 07:40:19;;;;;;;5.93;4.80;;;20.00;40.10;20.90;100184.00;;;;5014307;28;20767;-47
2023/12/01 07:42:53;;;;;;;5.03;4.53;;;20.10;40.80;20.80;100183.00;;;;5022195;28;20124;-43
2023/12/01 07:45:21;;;;;;;6.22;4.65;;;20.00;40.10;20.80;100183.00;;;;5015990;28;20037;-44
2023/12/01 07:47:52;;;;;;;6.65;5.30;;;20.00;40.20;20.80;100187.00;;;;5014983;28;20656;-43
2023/12/01 07:50:19;;;;;;;5.38;4.70;;;20.00;40.20;20.80;100194.00;;;;5013996;28;20037;-43
2023/12/01 07:52:47;;;;;;;5.50;5.00;;;20.00;40.20;20.80;100193.00;;;;5014078;28;20152;-43
2023/12/01 07:55:13;;;;;;;6.68;5.88;;;20.00;40.20;20.80;100187.00;;;;4997334;28;20118;-43
2023/12/01 07:57:40;;;;;;;5.65;5.07;;;20.00;40.20;20.80;100201.00;;;;5016317;28;20853;-43
2023/12/01 08:00:14;;;;;;;5.68;5.07;;;20.00;40.20;20.80;100202.00;;;;5016276;28;20042;-43
2023/12/01 08:02:58;;;;;;;5.70;5.20;;;20.00;40.10;20.80;100206.00;;;;5014981;28;20071;-43
2023/12/01 08:05:24;;;;;;;6.43;4.55;;;20.00;40.20;20.80;100204.00;;;;5015260;28;20367;-43
2023/12/01 08:07:53;;;;;;;6.97;6.32;;;20.00;40.20;20.80;100201.00;;;;5005246;28;20038;-43
2023/12/01 08:10:20;;;;;;;4.88;4.43;;;20.00;40.20;20.80;100213.00;;;;5014363;28;20387;-43
2023/12/01 08:12:49;;;;;;;5.93;4.85;;;20.00;40.30;20.80;100205.00;;;;5015911;28;20128;-43
2023/12/01 08:15:16;;;;;;;5.00;4.60;;;20.00;40.30;20.80;100211.00;;;;5014094;28;20033;-43
2023/12/01 08:17:45;;;;;;;5.63;5.10;;;20.00;40.20;20.80;100218.00;;;;5013219;28;20026;-43
2023/12/01 08:20:11;;;;;;;5.47;4.97;;;20.00;40.20;20.80;100223.00;;;;5014031;28;20033;-43
2023/12/01 08:22:37;;;;;;;5.20;4.63;;;20.00;40.20;20.80;100218.00;;;;5014825;28;20033;-43
2023/12/01 08:25:05;;;;;;;5.85;4.85;;;20.00;40.20;20.80;100219.00;;;;5029612;28;20505;-44
2023/12/01 08:27:31;;;;;;;4.93;4.53;;;20.00;40.20;20.80;100222.00;;;;5011591;28;20044;-43
2023/12/01 08:29:57;;;;;;;5.88;4.53;;;20.00;40.30;20.80;100226.00;;;;5000742;28;20643;-43
2023/12/01 08:32:23;;;;;;;4.68;4.28;;;20.00;40.30;20.80;100230.00;;;;5014604;28;20047;-43
2023/12/01 08:34:50;;;;;;;6.25;4.68;;;20.00;40.30;20.80;100212.00;;;;5016600;28;20684;-46
2023/12/01 08:37:17;;;;;;;5.85;4.97;;;20.00;40.30;20.90;100221.00;;;;5021172;28;20044;-46
2023/12/01 08:39:44;;;;;;;7.45;4.75;;;20.00;40.30;20.90;100225.00;;;;5015558;28;20026;-45
2023/12/01 08:42:10;;;;;;;4.90;4.50;;;20.10;40.40;21.00;100231.00;;;;5015782;28;20496;-46
2023/12/01 08:44:36;;;;;;;6.28;4.30;;;20.10;40.40;21.00;100225.00;;;;5014672;28;20048;-47
2023/12/01 08:47:02;;;;;;;5.88;4.80;;;20.10;40.40;21.10;100225.00;;;;5015419;28;20037;-43
2023/12/01 08:49:29;;;;;;;5.47;4.97;;;20.10;40.50;21.10;100226.00;;;;5011298;28;20044;-45
2023/12/01 08:51:55;;;;;;;9.95;4.97;;;20.10;40.50;21.20;100228.00;;;;4998659;28;20620;-46
2023/12/01 08:54:22;;;;;;;11.10;8.27;;;20.20;40.50;21.20;100241.00;;;;5015034;28;20115;-48
2023/12/01 08:56:49;;;;;;;15.43;11.02;;;20.20;40.10;21.30;100240.00;;;;5015151;28;20072;-50
2023/12/01 08:59:17;;;;;;;24.75;12.93;;;20.30;39.40;21.20;100237.00;;;;5015727;28;20482;-48
2023/12/01 09:01:44;;;;;;;34.67;19.67;;;20.30;38.70;21.20;100244.00;;;;5015324;28;20034;-47
2023/12/01 09:04:10;;;;;;;36.85;18.90;;;20.20;38.20;21.10;100231.00;;;;5005498;28;20037;-48
2023/12/01 09:06:39;;;;;;;31.77;20.25;;;20.20;38.00;21.00;100229.00;;;;5014578;28;20029;-47
2023/12/01 09:09:05;;;;;;;37.90;22.02;;;20.10;37.70;20.90;100239.00;;;;5013741;28;20060;-52
2023/12/01 09:11:31;;;;;;;41.30;21.33;;;20.10;37.70;20.80;100240.00;;;;5015387;28;20044;-48
2023/12/01 09:14:16;;;;;;;34.47;23.08;;;20.00;37.70;20.80;100235.00;;;;5014295;28;20479;-42
2023/12/01 09:16:42;;;;;;;35.75;23.15;;;20.00;37.70;20.70;100240.00;;;;5014075;28;20083;-47
2023/12/01 09:19:08;;;;;;;33.15;20.67;;;19.90;37.90;20.70;100245.00;;;;5015174;28;20057;-49
2023/12/01 09:21:34;;;;;;;26.58;20.58;;;19.90;37.80;20.60;100248.00;;;;5011283;28;20038;-50
2023/12/01 09:24:00;;;;;;;29.23;21.10;;;19.80;37.70;20.60;100250.00;;;;4987708;28;20129;-47
2023/12/01 09:26:26;;;;;;;33.22;20.80;;;19.80;37.50;20.50;100244.00;;;;5015603;28;20041;-44
2023/12/01 09:28:52;;;;;;;25.60;20.08;;;19.70;37.40;20.40;100253.00;;;;5005626;28;20067;-42
2023/12/01 09:31:18;;;;;;;23.90;18.45;;;19.70;37.20;20.30;100260.00;;;;5013178;28;20526;-43
2023/12/01 09:33:44;;;;;;;21.60;18.23;;;19.60;36.90;20.30;100272.00;;;;5015480;28;20038;-46
2023/12/01 09:36:11;;;;;;;25.35;20.30;;;19.60;36.80;20.20;100278.00;;;;5016236;28;20033;-48
2023/12/01 09:38:37;;;;;;;25.83;19.33;;;19.50;36.70;20.20;100279.00;;;;5019804;28;20045;-46
2023/12/01 09:41:03;;;;;;;26.05;18.90;;;19.50;36.70;20.10;100279.00;;;;5013867;28;20029;-46
2023/12/01 09:43:31;;;;;;;24.15;16.98;;;19.40;36.50;20.00;100282.00;;;;5018531;28;20518;-45
2023/12/01 09:45:58;;;;;;;24.98;18.95;;;19.40;36.50;20.00;100279.00;;;;5018551;28;20033;-45
2023/12/01 09:48:24;;;;;;;25.98;19.50;;;19.30;36.40;19.90;100292.00;;;;4983529;28;20144;-42
2023/12/01 09:50:50;;;;;;;24.70;17.25;;;19.30;36.40;19.90;100297.00;;;;5018200;28;21670;-42
2023/12/01 09:53:16;;;;;;;28.08;20.50;;;19.20;36.30;19.80;100302.00;;;;5017664;28;20376;-43
2023/12/01 09:55:43;;;;;;;25.42;17.60;;;19.20;36.20;19.80;100303.00;;;;5018543;28;20041;-43
2023/12/01 09:58:10;;;;;;;24.48;18.98;;;19.10;36.20;19.70;100311.00;;;;5018194;28;20041;-43
2023/12/01 10:00:36;;;;;;;27.20;20.13;;;19.10;36.10;19.70;100310.00;;;;5018089;28;20436;-43
2023/12/01 10:03:03;;;;;;;26.35;18.55;;;19.00;36.10;19.60;100319.00;;;;5018231;28;20033;-42
2023/12/01 10:05:34;;;;;;;25.92;18.08;;;18.90;36.00;19.60;100304.00;;;;5015630;28;20137;-42
2023/12/01 10:08:00;;;;;;;23.10;16.25;;;18.90;36.10;19.60;100318.00;;;;5017937;28;20470;-43
2023/12/01 10:10:28;;;;;;;17.70;14.23;;;18.90;36.60;19.80;100320.00;;;;5032788;28;20064;-45
2023/12/01 10:13:04;;;;;;;18.75;13.57;;;19.00;36.90;20.00;100316.00;;;;5008162;28;20084;-43
2023/12/01 10:15:33;;;;;;;15.10;10.73;;;19.10;37.30;20.30;100326.00;;;;5023841;28;20125;-44
2023/12/01 10:18:16;;;;;;;12.85;10.15;;;19.30;37.50;20.50;100309.00;;;;5015898;28;20076;-45
2023/12/01 10:21:02;;;;;;;13.10;8.30;;;19.40;37.60;20.90;100314.00;;;;5024036;28;20041;-49
2023/12/01 10:23:30;;;;;;;10.15;7.55;;;19.70;37.80;21.30;100307.00;;;;5016650;28;20121;-48
2023/12/01 10:25:57;;;;;;;16.10;7.50;;;20.00;37.70;21.60;100307.00;;;;5015331;28;20095;-48
2023/12/01 10:28:38;;;;;;;9.85;7.13;;;20.20;37.70;22.00;100315.00;;;;5017872;28;20045;-44
2023/12/01 10:31:04;;;;;;;6.55;5.82;;;20.40;37.60;22.20;100315.00;;;;5017778;28;20087;-50
2023/12/01 10:33:31;;;;;;;7.30;6.55;;;20.60;37.50;22.40;100309.00;;;;5032896;28;20041;-49
2023/12/01 10:36:08;;;;;;;6.28;5.68;;;20.80;37.50;22.50;100303.00;;;;5016816;28;20040;-43
2023/12/01 10:38:36;;;;;;;5.82;4.53;;;20.90;37.40;22.60;100306.00;;;;5017102;28;20029;-56
2023/12/01 10:41:04;;;;;;;5.60;5.10;;;21.10;37.40;22.80;100307.00;;;;5017014;28;20030;-42
2023/12/01 10:43:32;;;;;;;8.10;6.28;;;21.20;37.40;22.90;100309.00;;;;5017178;28;20502;-42
2023/12/01 10:46:08;;;;;;;5.78;5.38;;;21.40;37.40;23.00;100301.00;;;;5017416;28;20690;-43
2023/12/01 10:48:34;;;;;;;6.82;4.88;;;21.60;37.30;23.10;100307.00;;;;5005837;28;20526;-42
2023/12/01 10:51:04;;;;;;;6.03;4.55;;;21.70;37.30;23.30;100311.00;;;;5000212;28;20037;-43